Time;durP1;ratioP1;P1;durP2;ratioP2;P2;SDS_P1;SDS_P2;PMS_P1;PMS_P2;Temp;Humidity;BMP_temperature;BMP_pressure;BME280_temperature;BME280_humidity;BME280_pressure;Samples;Min_cycle;Max_cycle;Signal;HPM_P1;HPM_P2
2023/08/04 00:00:54;;;;;;;7.90;6.75;;;;;;;;;;5100569;28;20550;-74
2023/08/04 00:03:19;;;;;;;7.32;6.63;;;;;;;;;;5098720;28;20450;-74
2023/08/04 00:05:44;;;;;;;8.35;6.90;;;;;;;;;;5098045;27;20028;-74
2023/08/04 00:08:10;;;;;;;8.48;6.68;;;;;;;;;;5100848;28;20035;-76
2023/08/04 00:10:35;;;;;;;7.45;6.78;;;;;;;;;;5097227;28;20067;-74
2023/08/04 00:13:00;;;;;;;7.97;6.80;;;;;;;;;;5101619;28;20036;-74
2023/08/04 00:15:26;;;;;;;6.70;6.20;;;;;;;;;;5103347;28;20401;-73
2023/08/04 00:17:51;;;;;;;7.13;6.43;;;;;;;;;;5096204;28;20120;-73
2023/08/04 00:20:16;;;;;;;7.90;7.10;;;;;;;;;;5100029;28;20032;-74
2023/08/04 00:22:42;;;;;;;7.95;7.25;;;;;;;;;;5100215;28;20032;-75
2023/08/04 00:25:07;;;;;;;7.45;6.75;;;;;;;;;;5100797;28;20024;-74
2023/08/04 00:27:33;;;;;;;7.85;7.10;;;;;;;;;;5101461;28;20043;-76
2023/08/04 00:29:58;;;;;;;7.95;7.25;;;;;;;;;;5098837;28;20035;-75
2023/08/04 00:32:23;;;;;;;7.95;7.22;;;;;;;;;;5101428;28;20028;-72
2023/08/04 00:34:49;;;;;;;7.00;6.45;;;;;;;;;;5097619;28;20028;-76
2023/08/04 00:37:14;;;;;;;7.75;7.05;;;;;;;;;;5099209;27;20055;-73
2023/08/04 00:39:39;;;;;;;8.27;6.82;;;;;;;;;;5102022;28;20062;-74
2023/08/04 00:42:05;;;;;;;7.95;7.15;;;;;;;;;;5103213;28;20439;-73
2023/08/04 00:44:30;;;;;;;7.70;7.00;;;;;;;;;;5098483;28;20035;-72
2023/08/04 00:46:56;;;;;;;7.45;6.75;;;;;;;;;;5100946;28;20019;-73
2023/08/04 00:49:21;;;;;;;8.00;7.28;;;;;;;;;;5100779;28;20024;-73
2023/08/04 00:51:47;;;;;;;7.88;7.18;;;;;;;;;;5099081;28;20039;-73
2023/08/04 00:54:12;;;;;;;8.20;7.50;;;;;;;;;;5097868;28;20027;-74
2023/08/04 00:56:38;;;;;;;10.18;7.07;;;;;;;;;;5097822;28;20031;-76
2023/08/04 00:59:03;;;;;;;7.88;7.07;;;;;;;;;;5099495;28;20123;-75
2023/08/04 01:01:29;;;;;;;8.05;7.30;;;;;;;;;;5098076;28;20358;-73
2023/08/04 01:03:55;;;;;;;7.70;7.00;;;;;;;;;;5099063;27;20034;-74
2023/08/04 01:06:20;;;;;;;7.82;7.20;;;;;;;;;;5100270;27;20037;-73
2023/08/04 01:09:06;;;;;;;7.93;7.22;;;;;;;;;;5100118;28;20431;-74
2023/08/04 01:11:42;;;;;;;8.48;7.60;;;;;;;;;;5097338;28;20027;-73
2023/08/04 01:14:09;;;;;;;8.05;7.35;;;;;;;;;;5096382;28;20072;-75
2023/08/04 01:16:35;;;;;;;8.75;7.93;;;;;;;;;;5100844;28;20034;-73
2023/08/04 01:19:01;;;;;;;8.48;7.18;;;;;;;;;;5101951;28;20024;-76
2023/08/04 01:21:27;;;;;;;8.20;7.40;;;;;;;;;;5097907;28;20016;-73
2023/08/04 01:23:52;;;;;;;8.45;7.68;;;;;;;;;;5099114;28;20096;-72
2023/08/04 01:26:18;;;;;;;8.57;7.80;;;;;;;;;;5097666;28;20078;-75
2023/08/04 01:28:45;;;;;;;10.02;7.47;;;;;;;;;;5098917;28;20031;-73
2023/08/04 01:31:10;;;;;;;8.65;7.75;;;;;;;;;;5101838;28;20035;-73
2023/08/04 01:33:36;;;;;;;9.40;7.30;;;;;;;;;;5101706;28;20028;-76
2023/08/04 01:36:01;;;;;;;7.90;7.20;;;;;;;;;;5094750;28;20114;-73
2023/08/04 01:38:27;;;;;;;8.43;7.65;;;;;;;;;;5098560;28;20055;-76
2023/08/04 01:40:52;;;;;;;7.97;7.28;;;;;;;;;;5098730;28;20509;-75
2023/08/04 01:43:19;;;;;;;8.30;7.60;;;;;;;;;;5099085;28;20698;-74
2023/08/04 01:45:44;;;;;;;8.48;7.72;;;;;;;;;;5095729;28;20023;-74
2023/08/04 01:48:09;;;;;;;8.10;7.40;;;;;;;;;;5101722;28;20084;-74
2023/08/04 01:50:35;;;;;;;8.52;7.82;;;;;;;;;;5099521;28;20390;-74
2023/08/04 01:53:00;;;;;;;8.43;7.72;;;;;;;;;;5095152;28;20032;-75
2023/08/04 01:55:26;;;;;;;8.85;8.05;;;;;;;;;;5100685;28;20031;-76
2023/08/04 01:57:51;;;;;;;8.48;7.78;;;;;;;;;;5099900;28;20019;-75
2023/08/04 02:00:18;;;;;;;8.85;8.02;;;;;;;;;;5098575;28;20044;-74
2023/08/04 02:02:43;;;;;;;8.77;7.88;;;;;;;;;;5096708;28;20036;-74
2023/08/04 02:05:09;;;;;;;8.32;7.57;;;;;;;;;;5101974;28;20024;-75
2023/08/04 02:07:34;;;;;;;8.50;7.70;;;;;;;;;;5094973;28;20124;-74
2023/08/04 02:09:59;;;;;;;8.38;7.57;;;;;;;;;;5097365;28;20036;-74
2023/08/04 02:12:25;;;;;;;9.00;8.30;;;;;;;;;;5098363;28;20035;-77
2023/08/04 02:14:50;;;;;;;8.75;8.05;;;;;;;;;;5099204;28;20028;-75
2023/08/04 02:17:17;;;;;;;9.07;8.18;;;;;;;;;;5100195;28;20019;-75
2023/08/04 02:19:43;;;;;;;9.05;8.18;;;;;;;;;;5098334;28;20411;-74
2023/08/04 02:22:08;;;;;;;8.35;7.60;;;;;;;;;;5100827;28;20028;-74
2023/08/04 02:24:33;;;;;;;8.63;7.93;;;;;;;;;;5097700;28;20020;-74
2023/08/04 02:26:59;;;;;;;8.90;8.13;;;;;;;;;;5094832;28;20088;-74
2023/08/04 02:29:24;;;;;;;8.52;7.72;;;;;;;;;;5098062;28;20028;-74
2023/08/04 02:31:49;;;;;;;8.98;8.18;;;;;;;;;;5096999;28;20028;-76
2023/08/04 02:34:15;;;;;;;8.75;8.00;;;;;;;;;;5096768;28;20042;-76
2023/08/04 02:36:40;;;;;;;9.25;8.35;;;;;;;;;;5099052;28;20027;-77
2023/08/04 02:39:05;;;;;;;8.70;7.90;;;;;;;;;;5098388;28;20066;-76
2023/08/04 02:41:32;;;;;;;8.85;8.05;;;;;;;;;;5099708;28;20032;-75
2023/08/04 02:43:57;;;;;;;8.93;8.13;;;;;;;;;;5098890;28;20720;-74
2023/08/04 02:46:25;;;;;;;9.25;8.18;;;;;;;;;;5098661;28;20172;-78
2023/08/04 02:48:50;;;;;;;8.88;8.07;;;;;;;;;;5101274;28;20015;-75
2023/08/04 02:51:16;;;;;;;8.75;8.05;;;;;;;;;;5102222;28;20110;-76
2023/08/04 02:53:45;;;;;;;12.98;8.50;;;;;;;;;;5100276;28;20377;-74
2023/08/04 02:56:10;;;;;;;;;;;;;;;;;;5100739;28;20032;-74
2023/08/04 02:58:36;;;;;;;9.17;8.47;;;;;;;;;;5104161;28;20407;-76
2023/08/04 03:01:01;;;;;;;10.23;9.18;;;;;;;;;;5099834;28;20499;-75
2023/08/04 03:03:26;;;;;;;9.88;8.98;;;;;;;;;;5102029;28;20176;-74
2023/08/04 03:05:52;;;;;;;9.50;8.55;;;;;;;;;;5105093;28;20342;-74
2023/08/04 03:08:17;;;;;;;9.35;8.25;;;;;;;;;;5101437;28;20413;-74
2023/08/04 03:10:42;;;;;;;9.98;9.02;;;;;;;;;;5102209;28;20019;-74
2023/08/04 03:13:08;;;;;;;9.57;8.82;;;;;;;;;;5102873;28;20034;-76
2023/08/04 03:15:34;;;;;;;9.50;8.70;;;;;;;;;;5103610;28;20067;-74
2023/08/04 03:17:59;;;;;;;9.60;8.73;;;;;;;;;;5102921;28;20179;-76
2023/08/04 03:20:24;;;;;;;9.60;8.80;;;;;;;;;;5100957;28;20043;-74
2023/08/04 03:22:50;;;;;;;10.43;9.43;;;;;;;;;;5101422;28;20011;-76
2023/08/04 03:25:15;;;;;;;9.90;9.07;;;;;;;;;;5101307;28;20537;-75
2023/08/04 03:27:40;;;;;;;9.57;8.63;;;;;;;;;;5099622;28;20500;-75
2023/08/04 03:30:06;;;;;;;9.40;8.50;;;;;;;;;;5102008;28;20035;-74
2023/08/04 03:32:31;;;;;;;9.55;8.65;;;;;;;;;;5102094;28;20069;-74
2023/08/04 03:34:56;;;;;;;9.75;8.90;;;;;;;;;;5099692;27;20027;-74
2023/08/04 03:37:22;;;;;;;10.43;9.32;;;;;;;;;;5101710;28;20403;-74
2023/08/04 03:39:47;;;;;;;9.35;8.55;;;;;;;;;;5102924;28;20055;-74
2023/08/04 03:42:13;;;;;;;9.90;9.00;;;;;;;;;;5102428;28;20024;-74
2023/08/04 03:44:38;;;;;;;10.50;8.68;;;;;;;;;;5098465;28;20084;-76
2023/08/04 03:47:03;;;;;;;10.45;9.50;;;;;;;;;;5102156;28;20028;-74
2023/08/04 03:49:29;;;;;;;10.68;9.80;;;;;;;;;;5099485;28;20407;-75
2023/08/04 03:51:54;;;;;;;9.82;9.02;;;;;;;;;;5100094;28;20023;-74
2023/08/04 03:54:19;;;;;;;10.75;9.65;;;;;;;;;;5098841;28;20042;-74
2023/08/04 03:56:45;;;;;;;11.05;9.10;;;;;;;;;;5102457;28;20453;-74
2023/08/04 03:59:11;;;;;;;10.40;9.35;;;;;;;;;;5099268;28;20438;-74
2023/08/04 04:01:37;;;;;;;10.63;9.60;;;;;;;;;;5102378;28;20031;-76
2023/08/04 04:04:02;;;;;;;10.88;9.90;;;;;;;;;;5100278;28;20035;-74
2023/08/04 04:06:28;;;;;;;11.00;10.00;;;;;;;;;;5099804;28;20089;-75
2023/08/04 04:08:54;;;;;;;10.35;9.35;;;;;;;;;;5099953;28;20020;-74
2023/08/04 04:11:19;;;;;;;9.75;8.85;;;;;;;;;;5102225;28;20434;-75
2023/08/04 04:13:45;;;;;;;10.93;9.93;;;;;;;;;;5102946;28;20023;-74
2023/08/04 04:16:10;;;;;;;9.93;9.02;;;;;;;;;;5099833;28;20100;-74
2023/08/04 04:18:35;;;;;;;10.18;9.18;;;;;;;;;;5099865;28;20019;-74
2023/08/04 04:21:01;;;;;;;10.50;9.50;;;;;;;;;;5100923;28;20043;-74
2023/08/04 04:23:27;;;;;;;10.43;9.52;;;;;;;;;;5100682;28;20041;-74
2023/08/04 04:25:52;;;;;;;9.88;8.93;;;;;;;;;;5098007;28;20027;-74
2023/08/04 04:28:18;;;;;;;10.77;9.77;;;;;;;;;;5103118;28;20027;-76
2023/08/04 04:30:43;;;;;;;9.82;9.02;;;;;;;;;;5100240;28;20154;-75
2023/08/04 04:33:08;;;;;;;10.25;9.40;;;;;;;;;;5100886;28;20071;-76
2023/08/04 04:35:34;;;;;;;12.30;9.73;;;;;;;;;;5099490;28;20051;-76
2023/08/04 04:37:59;;;;;;;10.13;9.23;;;;;;;;;;5100311;28;20161;-73
2023/08/04 04:40:24;;;;;;;10.52;9.60;;;;;;;;;;5099969;28;20036;-73
2023/08/04 04:42:50;;;;;;;12.82;9.85;;;;;;;;;;5099454;28;20024;-73
2023/08/04 04:45:15;;;;;;;11.23;10.23;;;;;;;;;;5099349;28;20438;-73
2023/08/04 04:47:40;;;;;;;10.02;9.20;;;;;;;;;;5098010;28;20051;-74
2023/08/04 04:50:06;;;;;;;11.07;9.90;;;;;;;;;;5099510;28;20545;-74
2023/08/04 04:52:32;;;;;;;10.95;9.88;;;;;;;;;;5098266;28;20144;-74
2023/08/04 04:54:59;;;;;;;10.27;9.38;;;;;;;;;;5099622;28;20171;-74
2023/08/04 04:57:25;;;;;;;10.75;9.75;;;;;;;;;;5098965;28;20020;-74
2023/08/04 04:59:51;;;;;;;11.77;10.68;;;;;;;;;;5099228;28;20019;-76
2023/08/04 05:02:16;;;;;;;12.25;10.38;;;;;;;;;;5099252;28;20034;-74
2023/08/04 05:04:43;;;;;;;10.88;9.98;;;;;;;;;;5100869;28;20106;-74
2023/08/04 05:07:08;;;;;;;10.55;9.35;;;;;;;;;;5098966;28;20015;-74
2023/08/04 05:09:33;;;;;;;10.38;9.40;;;;;;;;;;5102494;28;20473;-74
2023/08/04 05:11:59;;;;;;;10.00;9.02;;;;;;;;;;5095973;28;20387;-73
2023/08/04 05:14:24;;;;;;;10.80;9.70;;;;;;;;;;5098548;28;20065;-74
2023/08/04 05:16:49;;;;;;;9.43;8.52;;;;;;;;;;5099491;28;20019;-74
2023/08/04 05:19:14;;;;;;;9.88;9.05;;;;;;;;;;5096955;28;20030;-77
2023/08/04 05:21:40;;;;;;;9.75;8.82;;;;;;;;;;5097932;28;20034;-74
2023/08/04 05:24:05;;;;;;;10.38;9.45;;;;;;;;;;5101404;28;20031;-73
2023/08/04 05:26:31;;;;;;;10.43;9.30;;;;;;;;;;5100246;28;20027;-76
2023/08/04 05:28:56;;;;;;;11.13;10.13;;;;;;;;;;5099685;28;20042;-74
2023/08/04 05:31:21;;;;;;;12.23;10.70;;;;;;;;;;5098650;28;20031;-76
2023/08/04 05:33:47;;;;;;;12.88;10.60;;;;;;;;;;5099852;28;20024;-73
2023/08/04 05:36:12;;;;;;;13.10;11.15;;;;;;;;;;5099141;28;20027;-74
2023/08/04 05:38:38;;;;;;;14.85;13.55;;;;;;;;;;5098033;28;20419;-74
2023/08/04 05:41:04;;;;;;;12.20;11.00;;;;;;;;;;5100927;28;20089;-74
2023/08/04 05:43:30;;;;;;;15.50;12.70;;;;;;;;;;5095434;28;20080;-75
2023/08/04 05:45:58;;;;;;;13.55;12.15;;;;;;;;;;5097485;28;20023;-75
2023/08/04 05:48:24;;;;;;;12.52;11.32;;;;;;;;;;5099370;28;20031;-75
2023/08/04 05:50:49;;;;;;;15.23;13.05;;;;;;;;;;5099441;28;20039;-74
2023/08/04 05:53:14;;;;;;;11.50;10.38;;;;;;;;;;5098394;28;20042;-76
2023/08/04 05:55:40;;;;;;;9.68;8.77;;;;;;;;;;5096488;28;20028;-74
2023/08/04 05:58:05;;;;;;;11.55;8.95;;;;;;;;;;5095782;28;20023;-73
2023/08/04 06:00:31;;;;;;;8.50;7.80;;;;;;;;;;5098603;28;20019;-73
2023/08/04 06:02:56;;;;;;;8.55;7.70;;;;;;;;;;5100662;27;20032;-74
2023/08/04 06:05:22;;;;;;;7.97;7.22;;;;;;;;;;5099360;28;20455;-74
2023/08/04 06:07:47;;;;;;;7.93;7.13;;;;;;;;;;5099821;28;20024;-73
2023/08/04 06:10:13;;;;;;;8.48;7.35;;;;;;;;;;5095887;28;20096;-73
2023/08/04 06:12:38;;;;;;;7.75;7.05;;;;;;;;;;5099234;28;20171;-74
2023/08/04 06:15:04;;;;;;;8.77;7.97;;;;;;;;;;5100225;28;20360;-76
2023/08/04 06:17:29;;;;;;;8.48;7.50;;;;;;;;;;5093925;28;20085;-74
2023/08/04 06:19:55;;;;;;;12.98;7.75;;;;;;;;;;5096514;28;20031;-74
2023/08/04 06:22:20;;;;;;;9.00;7.55;;;;;;;;;;5098815;28;20503;-74
2023/08/04 06:24:45;;;;;;;9.32;8.20;;;;;;;;;;5094328;28;20031;-74
2023/08/04 06:27:11;;;;;;;8.93;8.02;;;;;;;;;;5098815;28;20055;-73
2023/08/04 06:29:36;;;;;;;8.82;7.63;;;;;;;;;;5100560;28;20814;-74
2023/08/04 06:32:01;;;;;;;7.60;6.90;;;;;;;;;;5099446;28;20028;-73
2023/08/04 06:34:27;;;;;;;9.15;8.07;;;;;;;;;;5097081;28;20081;-76
2023/08/04 06:36:52;;;;;;;9.15;8.25;;;;;;;;;;5098604;28;20023;-76
2023/08/04 06:39:18;;;;;;;8.98;8.07;;;;;;;;;;5097366;28;20040;-76
2023/08/04 06:41:43;;;;;;;8.23;7.38;;;;;;;;;;5095650;28;20039;-74
2023/08/04 06:44:08;;;;;;;8.23;7.35;;;;;;;;;;5097522;28;20016;-74
2023/08/04 06:46:34;;;;;;;7.50;6.80;;;;;;;;;;5095960;28;20063;-75
2023/08/04 06:48:59;;;;;;;8.65;7.78;;;;;;;;;;5096229;28;20023;-74
2023/08/04 06:51:24;;;;;;;8.98;7.53;;;;;;;;;;5098785;28;20038;-73
2023/08/04 06:53:50;;;;;;;8.02;7.22;;;;;;;;;;5094850;28;20407;-74
2023/08/04 06:56:15;;;;;;;8.85;8.05;;;;;;;;;;5098184;28;20445;-74
2023/08/04 06:58:40;;;;;;;7.93;7.22;;;;;;;;;;5097907;28;20032;-73
2023/08/04 07:01:06;;;;;;;11.02;7.72;;;;;;;;;;5097662;28;20031;-73
2023/08/04 07:03:31;;;;;;;11.93;9.65;;;;;;;;;;5100562;28;20031;-73
2023/08/04 07:05:57;;;;;;;8.23;7.53;;;;;;;;;;5099866;28;20019;-76
2023/08/04 07:08:22;;;;;;;7.75;7.05;;;;;;;;;;5097286;28;20036;-73
2023/08/04 07:10:47;;;;;;;7.78;6.97;;;;;;;;;;5097555;28;20510;-77
2023/08/04 07:13:13;;;;;;;10.73;8.05;;;;;;;;;;5097154;28;20477;-73
2023/08/04 07:15:38;;;;;;;7.78;6.97;;;;;;;;;;5098383;28;20458;-73
2023/08/04 07:18:03;;;;;;;7.53;6.82;;;;;;;;;;5098964;28;20043;-73
2023/08/04 07:20:30;;;;;;;9.98;7.68;;;;;;;;;;5099749;28;20027;-74
2023/08/04 07:22:55;;;;;;;8.02;7.32;;;;;;;;;;5094636;28;20044;-75
2023/08/04 07:25:20;;;;;;;8.02;7.40;;;;;;;;;;5098923;28;20082;-77
2023/08/04 07:27:46;;;;;;;8.82;7.85;;;;;;;;;;5097547;28;20032;-74
2023/08/04 07:30:13;;;;;;;7.70;6.80;;;;;;;;;;5098202;28;20036;-73
2023/08/04 07:32:38;;;;;;;10.32;7.70;;;;;;;;;;5098794;28;20027;-73
2023/08/04 07:35:04;;;;;;;8.35;7.55;;;;;;;;;;5098440;28;20047;-73
2023/08/04 07:37:29;;;;;;;8.70;7.82;;;;;;;;;;5102704;28;20032;-73
2023/08/04 07:39:54;;;;;;;8.93;7.88;;;;;;;;;;5101121;28;20048;-73
2023/08/04 07:42:20;;;;;;;10.35;7.90;;;;;;;;;;5097597;28;20111;-74
2023/08/04 07:44:45;;;;;;;8.57;7.68;;;;;;;;;;5100849;28;20060;-73
2023/08/04 07:47:10;;;;;;;8.65;7.68;;;;;;;;;;5102429;28;20070;-78
2023/08/04 07:49:36;;;;;;;8.45;7.60;;;;;;;;;;5102023;28;20030;-75
2023/08/04 07:52:01;;;;;;;10.07;8.52;;;;;;;;;;5100740;28;20027;-75
2023/08/04 07:54:26;;;;;;;10.48;8.25;;;;;;;;;;5100219;28;20024;-74
2023/08/04 07:56:52;;;;;;;9.65;8.05;;;;;;;;;;5101743;28;20027;-75
2023/08/04 07:59:17;;;;;;;9.05;8.13;;;;;;;;;;5101379;28;20042;-74
2023/08/04 08:01:42;;;;;;;9.43;8.60;;;;;;;;;;5104703;27;20092;-73
2023/08/04 08:04:08;;;;;;;9.13;8.13;;;;;;;;;;5103035;28;20032;-74
2023/08/04 08:06:33;;;;;;;8.85;8.05;;;;;;;;;;5100944;28;20139;-72
2023/08/04 08:08:58;;;;;;;9.75;8.00;;;;;;;;;;5100314;28;20024;-76
2023/08/04 08:11:24;;;;;;;9.55;8.65;;;;;;;;;;5098435;27;20452;-75
2023/08/04 08:13:49;;;;;;;8.52;7.68;;;;;;;;;;5098404;28;20488;-73
2023/08/04 08:16:15;;;;;;;8.18;7.45;;;;;;;;;;5099363;28;20462;-75
2023/08/04 08:18:41;;;;;;;8.85;8.00;;;;;;;;;;5098139;28;20028;-75
2023/08/04 08:21:07;;;;;;;8.00;7.30;;;;;;;;;;5102239;28;20034;-74
2023/08/04 08:23:32;;;;;;;8.48;7.70;;;;;;;;;;5101022;28;20463;-74
2023/08/04 08:25:58;;;;;;;8.30;7.50;;;;;;;;;;5100988;28;20065;-74
2023/08/04 08:28:23;;;;;;;8.38;7.68;;;;;;;;;;5100652;28;20093;-75
2023/08/04 08:30:48;;;;;;;9.45;7.78;;;;;;;;;;5101142;28;20358;-77
2023/08/04 08:33:14;;;;;;;8.18;7.35;;;;;;;;;;5100597;28;20422;-74
2023/08/04 08:35:39;;;;;;;8.70;7.13;;;;;;;;;;5099815;27;20352;-74
2023/08/04 08:38:04;;;;;;;8.10;7.30;;;;;;;;;;5100337;28;20363;-74
2023/08/04 08:40:30;;;;;;;7.32;6.63;;;;;;;;;;5097818;28;20036;-74
2023/08/04 08:42:56;;;;;;;9.00;7.68;;;;;;;;;;5100711;28;20027;-75
2023/08/04 08:45:28;;;;;;;8.05;7.35;;;;;;;;;;5098040;28;20019;-74
2023/08/04 08:47:55;;;;;;;7.53;6.70;;;;;;;;;;5111688;27;20051;-75
2023/08/04 08:50:24;;;;;;;9.07;7.10;;;;;;;;;;5097103;27;20032;-76
2023/08/04 08:53:12;;;;;;;8.18;7.38;;;;;;;;;;5099651;28;20114;-73
2023/08/04 08:55:39;;;;;;;7.82;7.13;;;;;;;;;;5091620;28;20054;-75
2023/08/04 08:58:04;;;;;;;7.70;6.93;;;;;;;;;;5099155;28;20032;-75
2023/08/04 09:00:30;;;;;;;8.00;6.75;;;;;;;;;;5098806;28;20028;-75
2023/08/04 09:02:55;;;;;;;7.68;6.97;;;;;;;;;;5099468;27;20059;-75
2023/08/04 09:05:21;;;;;;;7.72;6.90;;;;;;;;;;5100922;28;20103;-74
2023/08/04 09:07:50;;;;;;;8.40;7.60;;;;;;;;;;5099759;28;20041;-74
2023/08/04 09:10:15;;;;;;;7.93;7.13;;;;;;;;;;5099249;28;20046;-75
2023/08/04 09:12:44;;;;;;;9.25;8.18;;;;;;;;;;5100657;28;20031;-74
2023/08/04 09:15:09;;;;;;;;;;;;;;;;;;5101214;28;20027;-73
2023/08/04 09:17:35;;;;;;;9.77;7.10;;;;;;;;;;5097044;28;19923;-74
2023/08/04 09:20:02;;;;;;;8.13;7.43;;;;;;;;;;5099754;28;20480;-75
2023/08/04 09:22:27;;;;;;;7.30;6.60;;;;;;;;;;5100768;28;20035;-74
2023/08/04 09:24:57;;;;;;;8.48;7.70;;;;;;;;;;5097159;28;20442;-74
2023/08/04 09:27:30;;;;;;;8.55;7.65;;;;;;;;;;5097168;28;20451;-75
2023/08/04 09:29:56;;;;;;;8.05;7.25;;;;;;;;;;5098293;28;20818;-74
2023/08/04 09:32:21;;;;;;;8.05;7.35;;;;;;;;;;5097838;28;20103;-75
2023/08/04 09:34:57;;;;;;;8.10;7.32;;;;;;;;;;5098438;28;20030;-76
2023/08/04 09:37:22;;;;;;;7.90;7.20;;;;;;;;;;5099174;28;20032;-75
2023/08/04 09:39:48;;;;;;;8.25;7.38;;;;;;;;;;5098047;28;20053;-76
2023/08/04 09:42:15;;;;;;;8.98;7.10;;;;;;;;;;5097750;28;20097;-75
2023/08/04 09:44:40;;;;;;;8.05;7.35;;;;;;;;;;5100506;28;20116;-76
2023/08/04 09:47:06;;;;;;;7.97;7.28;;;;;;;;;;5098487;28;20116;-74
2023/08/04 09:49:31;;;;;;;7.82;7.13;;;;;;;;;;5097109;28;20027;-75
2023/08/04 09:51:56;;;;;;;8.10;7.40;;;;;;;;;;5099756;27;20050;-76
2023/08/04 09:54:22;;;;;;;10.32;7.85;;;;;;;;;;5096737;28;20032;-76
2023/08/04 09:56:49;;;;;;;8.70;7.88;;;;;;;;;;5095149;28;20031;-75
2023/08/04 09:59:14;;;;;;;8.25;7.28;;;;;;;;;;5097751;28;20050;-77
2023/08/04 10:01:40;;;;;;;8.80;7.70;;;;;;;;;;5097376;28;20031;-74
2023/08/04 10:04:06;;;;;;;13.82;6.90;;;;;;;;;;5098862;28;20446;-74
2023/08/04 10:06:33;;;;;;;7.80;7.20;;;;;;;;;;5099617;28;20028;-74
2023/08/04 10:08:58;;;;;;;7.85;7.15;;;;;;;;;;5099067;28;20016;-76
2023/08/04 10:11:24;;;;;;;8.30;7.50;;;;;;;;;;5093992;28;20050;-76
2023/08/04 10:13:54;;;;;;;8.00;7.07;;;;;;;;;;5099276;28;20022;-75
2023/08/04 10:16:22;;;;;;;8.10;7.30;;;;;;;;;;5096295;28;20051;-75
2023/08/04 10:18:49;;;;;;;7.63;7.00;;;;;;;;;;5098531;28;20437;-75
2023/08/04 10:21:15;;;;;;;7.80;7.10;;;;;;;;;;5096624;28;20352;-75
2023/08/04 10:23:41;;;;;;;8.07;7.18;;;;;;;;;;5096421;28;20023;-75
2023/08/04 10:26:10;;;;;;;7.60;6.82;;;;;;;;;;5093828;28;20024;-74
2023/08/04 10:28:55;;;;;;;10.25;7.43;;;;;;;;;;5099329;28;20028;-74
2023/08/04 10:31:20;;;;;;;7.97;7.28;;;;;;;;;;5097216;28;20056;-74
2023/08/04 10:34:06;;;;;;;9.05;7.25;;;;;;;;;;5098992;28;20047;-76
2023/08/04 10:36:51;;;;;;;7.97;7.25;;;;;;;;;;5096973;28;20046;-75
2023/08/04 10:39:39;;;;;;;7.68;7.03;;;;;;;;;;5097105;28;20051;-74
2023/08/04 10:42:11;;;;;;;8.30;7.57;;;;;;;;;;5090245;28;20100;-75
2023/08/04 10:44:49;;;;;;;7.82;7.22;;;;;;;;;;5099466;28;20059;-74
2023/08/04 10:47:15;;;;;;;8.15;7.32;;;;;;;;;;5096426;28;20089;-74
2023/08/04 10:49:41;;;;;;;8.50;7.68;;;;;;;;;;5097643;28;20351;-76
2023/08/04 10:52:06;;;;;;;8.05;7.35;;;;;;;;;;5099806;28;20115;-78
2023/08/04 10:54:32;;;;;;;8.35;7.70;;;;;;;;;;5100002;28;20050;-75
2023/08/04 10:56:57;;;;;;;8.75;7.88;;;;;;;;;;5098875;28;20023;-75
2023/08/04 10:59:22;;;;;;;8.10;6.80;;;;;;;;;;5098608;28;20032;-74
2023/08/04 11:01:48;;;;;;;8.48;7.68;;;;;;;;;;5096141;28;20035;-75
2023/08/04 11:04:14;;;;;;;8.55;7.72;;;;;;;;;;5099393;28;20024;-74
2023/08/04 11:06:40;;;;;;;7.82;7.22;;;;;;;;;;5097869;28;20107;-75
2023/08/04 11:09:05;;;;;;;8.43;7.63;;;;;;;;;;5102977;28;20134;-75
2023/08/04 11:11:31;;;;;;;11.45;7.72;;;;;;;;;;5103023;28;20028;-75
2023/08/04 11:13:57;;;;;;;8.88;7.97;;;;;;;;;;5099287;28;20023;-75
2023/08/04 11:16:24;;;;;;;8.35;7.50;;;;;;;;;;5097913;28;20020;-76
2023/08/04 11:18:50;;;;;;;8.40;7.38;;;;;;;;;;5102585;28;20039;-75
2023/08/04 11:21:15;;;;;;;8.55;7.75;;;;;;;;;;5102205;28;20047;-75
2023/08/04 11:23:41;;;;;;;8.90;8.02;;;;;;;;;;5100605;27;20024;-73
2023/08/04 11:26:07;;;;;;;8.43;7.73;;;;;;;;;;5099500;28;20055;-75
2023/08/04 11:28:34;;;;;;;8.85;8.02;;;;;;;;;;5103899;28;20244;-76
2023/08/04 11:31:04;;;;;;;7.87;7.27;;;;;;;;;;5101007;28;20136;-76
2023/08/04 11:33:29;;;;;;;8.10;7.38;;;;;;;;;;5099918;28;20026;-74
2023/08/04 11:35:54;;;;;;;8.10;7.30;;;;;;;;;;5102107;28;20012;-74
2023/08/04 11:38:20;;;;;;;8.98;8.07;;;;;;;;;;5099562;28;20283;-74
2023/08/04 11:40:59;;;;;;;9.20;8.13;;;;;;;;;;5103821;28;20053;-75
2023/08/04 11:43:24;;;;;;;8.95;8.05;;;;;;;;;;5100306;28;20019;-75
2023/08/04 11:45:50;;;;;;;8.93;8.13;;;;;;;;;;5101534;28;20023;-75
2023/08/04 11:48:16;;;;;;;9.02;8.23;;;;;;;;;;5099321;28;20042;-74
2023/08/04 11:50:42;;;;;;;8.02;7.32;;;;;;;;;;5097671;28;20063;-77
2023/08/04 11:53:07;;;;;;;8.43;7.65;;;;;;;;;;5100010;28;20063;-75
2023/08/04 11:55:33;;;;;;;8.77;7.90;;;;;;;;;;5097960;28;20026;-76
2023/08/04 11:57:58;;;;;;;8.63;7.82;;;;;;;;;;5102463;28;20019;-76
2023/08/04 12:00:33;;;;;;;8.20;7.47;;;;;;;;;;5102366;28;20083;-79
2023/08/04 12:03:00;;;;;;;9.20;7.70;;;;;;;;;;5101863;27;20023;-75
2023/08/04 12:05:31;;;;;;;9.07;8.27;;;;;;;;;;5102505;28;20577;-75
2023/08/04 12:08:11;;;;;;;9.02;8.02;;;;;;;;;;5100936;28;20038;-75
2023/08/04 12:10:37;;;;;;;8.13;7.53;;;;;;;;;;5101414;28;20031;-76
2023/08/04 12:13:02;;;;;;;8.82;7.93;;;;;;;;;;5096755;28;20047;-73
2023/08/04 12:15:28;;;;;;;8.63;7.93;;;;;;;;;;5100180;28;20142;-75
2023/08/04 12:17:53;;;;;;;8.80;8.00;;;;;;;;;;5101111;28;20424;-75
2023/08/04 12:20:18;;;;;;;9.02;8.05;;;;;;;;;;5099458;28;20024;-76
2023/08/04 12:22:44;;;;;;;8.43;7.72;;;;;;;;;;5101916;28;20024;-75
2023/08/04 12:25:10;;;;;;;8.65;7.97;;;;;;;;;;5099267;28;20027;-75
2023/08/04 12:27:36;;;;;;;8.77;8.07;;;;;;;;;;5099601;28;20062;-75
2023/08/04 12:30:02;;;;;;;8.95;8.05;;;;;;;;;;5101007;28;20424;-76
2023/08/04 12:32:27;;;;;;;11.20;8.50;;;;;;;;;;5101170;28;20028;-74
2023/08/04 12:34:53;;;;;;;11.10;8.13;;;;;;;;;;5100964;28;20015;-75
2023/08/04 12:37:18;;;;;;;11.40;7.32;;;;;;;;;;5101249;28;20445;-76
2023/08/04 12:39:46;;;;;;;8.15;7.53;;;;;;;;;;5100561;28;20473;-75
2023/08/04 12:42:12;;;;;;;9.55;8.60;;;;;;;;;;5098426;28;20654;-78
2023/08/04 12:44:37;;;;;;;8.80;8.05;;;;;;;;;;5102824;28;20059;-75
2023/08/04 12:47:02;;;;;;;8.90;8.23;;;;;;;;;;5098529;28;20031;-76
2023/08/04 12:49:28;;;;;;;9.20;8.32;;;;;;;;;;5098990;28;20035;-74
2023/08/04 12:51:53;;;;;;;8.77;8.07;;;;;;;;;;5098974;28;20047;-75
2023/08/04 12:54:20;;;;;;;8.48;7.78;;;;;;;;;;5098167;28;20065;-75
2023/08/04 12:56:45;;;;;;;9.35;7.97;;;;;;;;;;5101992;28;20059;-74
2023/08/04 12:59:10;;;;;;;8.82;8.13;;;;;;;;;;5099124;28;20086;-76
2023/08/04 13:01:36;;;;;;;8.88;8.02;;;;;;;;;;5100605;28;20023;-76
2023/08/04 13:04:02;;;;;;;8.90;8.13;;;;;;;;;;5098188;28;20132;-76
2023/08/04 13:06:27;;;;;;;10.50;8.30;;;;;;;;;;5101730;28;20458;-76
2023/08/04 13:08:53;;;;;;;9.68;8.98;;;;;;;;;;5099297;28;20027;-77
2023/08/04 13:11:18;;;;;;;9.23;8.38;;;;;;;;;;5100179;28;20040;-74
2023/08/04 13:13:43;;;;;;;11.03;8.03;;;;;;;;;;5098362;28;20114;-74
2023/08/04 13:16:09;;;;;;;8.20;7.50;;;;;;;;;;5099124;28;20363;-75
2023/08/04 13:18:34;;;;;;;9.73;8.95;;;;;;;;;;5097658;28;20352;-75
2023/08/04 13:21:06;;;;;;;8.95;8.25;;;;;;;;;;5097826;28;20055;-78
2023/08/04 13:23:32;;;;;;;9.55;7.78;;;;;;;;;;5096387;28;20350;-74
2023/08/04 13:26:01;;;;;;;9.77;8.77;;;;;;;;;;5097821;28;20808;-76
2023/08/04 13:28:27;;;;;;;9.68;8.93;;;;;;;;;;5099558;28;20019;-77
2023/08/04 13:30:52;;;;;;;8.95;7.80;;;;;;;;;;5099960;28;20046;-75
2023/08/04 13:33:17;;;;;;;9.80;8.85;;;;;;;;;;5096714;28;20046;-76
2023/08/04 13:35:43;;;;;;;9.60;8.70;;;;;;;;;;5098887;28;20067;-75
2023/08/04 13:38:08;;;;;;;9.30;8.40;;;;;;;;;;5101266;28;20330;-77
2023/08/04 13:40:33;;;;;;;9.43;8.63;;;;;;;;;;5097626;28;20032;-74
2023/08/04 13:42:59;;;;;;;9.30;8.50;;;;;;;;;;5100380;28;20043;-75
2023/08/04 13:45:25;;;;;;;9.82;8.70;;;;;;;;;;5099537;28;20462;-74
2023/08/04 13:47:50;;;;;;;9.45;8.65;;;;;;;;;;5097931;28;20055;-77
2023/08/04 13:50:16;;;;;;;10.32;9.27;;;;;;;;;;5097674;28;20520;-74
2023/08/04 13:52:41;;;;;;;9.77;8.38;;;;;;;;;;5102035;28;20023;-74
2023/08/04 13:55:06;;;;;;;12.77;8.45;;;;;;;;;;5100239;28;20453;-78
2023/08/04 13:57:32;;;;;;;9.55;8.63;;;;;;;;;;5098810;28;20035;-75
2023/08/04 13:59:57;;;;;;;9.82;9.02;;;;;;;;;;5093111;28;20039;-74
2023/08/04 14:02:25;;;;;;;8.85;8.07;;;;;;;;;;5099053;28;20034;-76
2023/08/04 14:04:50;;;;;;;9.68;8.88;;;;;;;;;;5095573;28;20027;-79
2023/08/04 14:07:16;;;;;;;9.77;8.88;;;;;;;;;;5099386;28;20389;-76
2023/08/04 14:09:41;;;;;;;9.25;8.55;;;;;;;;;;5098393;28;20031;-75
2023/08/04 14:12:06;;;;;;;10.02;8.55;;;;;;;;;;5096807;28;20036;-77
2023/08/04 14:14:32;;;;;;;10.23;9.32;;;;;;;;;;5095975;28;20045;-76
2023/08/04 14:16:57;;;;;;;9.77;8.98;;;;;;;;;;5099173;28;20031;-75
2023/08/04 14:19:23;;;;;;;9.75;8.88;;;;;;;;;;5100844;28;20058;-74
2023/08/04 14:21:48;;;;;;;10.43;9.50;;;;;;;;;;5099306;28;20432;-75
2023/08/04 14:24:13;;;;;;;9.70;8.73;;;;;;;;;;5097422;27;20106;-74
2023/08/04 14:26:39;;;;;;;9.82;8.90;;;;;;;;;;5096761;28;20344;-76
2023/08/04 14:29:04;;;;;;;11.50;9.48;;;;;;;;;;5097978;28;20469;-75
2023/08/04 14:31:29;;;;;;;10.27;9.32;;;;;;;;;;5100039;28;20445;-79
2023/08/04 14:33:55;;;;;;;9.90;8.88;;;;;;;;;;5097143;28;20027;-75